Newport, WA

10:58 PM PDT on October 25, 2014 (GMT -0700)
KWADEERP3 | Change Station
CLOSE
Current Station
Personal Weather Station
Location: Pend Oreille County, WA
Elevation: 2482 ft
Nearby Weather Stations

Elev 2482 ft 48.09 °N, 117.43 °W | Updated 9 seconds ago

Overcast
Overcast
53.8 °F
Feels Like 53.8 °F
N
10.4
Wind Variable Wind from South
Gusts 10.4 mph

Today
High -- | Low -- °F
--% Chance of Precip.
Yesterday
High -- | Low -- °F
Precip. -- in
7:23 AM 5:41 PM
Waxing Crescent, 6% visible
Pressure 29.57 in
Visibility 10.0 miles
Clouds Overcast 7500 ft
Dew Point 47 °F
Humidity 79%
Rainfall 0.06 in
Snow Depth Not available.
UV 0 out of 12
Pollen 1.50 out of 12
PM2.5 Good
Flu Activity Sporadic
METAR KDEW 260553Z AUTO 20019G37KT 10SM OVC075 13/06 A2958 RMK AO2 PK WND 20037/0546 SLP014 60005 T01330061 10139 20094 53017

More Conditions Fewer Conditions

Pressure 29.57 in
Visibility 10.0 miles
Clouds Overcast 7500 ft
Dew Point 47 °F
Humidity 79%
Rainfall 0.06 in
Snow Depth Not available.
UV 0 out of 12
Pollen 1.50 out of 12
PM2.5 Good
Flu Activity Sporadic
METAR KDEW 260553Z AUTO 20019G37KT 10SM OVC075 13/06 A2958 RMK AO2 PK WND 20037/0546 SLP014 60005 T01330061 10139 20094 53017

More Conditions Fewer Conditions

10-Day Weather Forecast

Almanac

Astronomy

Oct. 25, 2014 Rise Set
Actual Time 7:23 AM PDT 5:41 PM PDT
Civil Twilight 6:51 AM PDT 6:13 PM PDT
Nautical Twilight 6:14 AM PDT 6:49 PM PDT
Astronomical Twilight 5:38 AM PDT 7:25 PM PDT
Moon 9:12 AM PDT (10/25) 7:00 PM PDT (10/25)
Length of Visible Light 11h 22m
Length of Day
10h 17m
Tomorrow will be 3m 16s shorter.
Waxing Crescent, 6% of the Moon is Illuminated
Oct 26
Waxing Crescent
Oct 30
First Quarter
Nov 6
Full
Nov 14
Last Quarter
Nov 22
New

Yesterday's Extremes

State Highs State Lows

Community

WunderPhotos

Upload Photos

1,765,112 photos uploaded!

Nearby

Air Quality

  Air Quality AQ Index Pollutant
Yesterday Good
PM10
Current Good
PM2.5
Saturday Good
PM10
Saturday Good
CO
Sunday Good
PM10
Sunday Good
CO
Monday Good
PM10
Monday Good
CO

Snow Depth

Station Depth Elevation
Quartz Peak 1 in 4700 ft
Bunchgrass Meadow 0 in 5000 ft
Moses Mountain 0 in 5300 ft
Sourdough Gulch 0 in 4000 ft
Spruce Springs 0 in 5700 ft

Earthquake Activity

City Distance Mag. Time & Date
No recent earthquake activity has been reported nearby.
Minimum magnitude displayed is 2.5.

Coastal Water Temperatures

Place Temperature
No Stations Reporting

Nearby Weather Stations